sensor_id;sensor_type;location;lat;lon;timestamp;P1;durP1;ratioP1;P2;durP2;ratioP2
37633;SDS011;32048;49.902;22.508;2022-11-15T00:00:56;72.03;;;9.03;;
37633;SDS011;32048;49.902;22.508;2022-11-15T00:03:24;91.60;;;10.53;;
37633;SDS011;32048;49.902;22.508;2022-11-15T00:05:53;67.63;;;9.43;;
37633;SDS011;32048;49.902;22.508;2022-11-15T00:08:20;49.30;;;8.13;;
37633;SDS011;32048;49.902;22.508;2022-11-15T00:10:57;22.17;;;7.70;;
37633;SDS011;32048;49.902;22.508;2022-11-15T00:13:25;33.97;;;7.60;;
37633;SDS011;32048;49.902;22.508;2022-11-15T00:15:56;36.20;;;7.20;;
37633;SDS011;32048;49.902;22.508;2022-11-15T00:18:23;24.50;;;7.30;;
37633;SDS011;32048;49.902;22.508;2022-11-15T00:20:51;37.10;;;6.80;;
37633;SDS011;32048;49.902;22.508;2022-11-15T00:23:17;23.67;;;6.43;;
37633;SDS011;32048;49.902;22.508;2022-11-15T00:25:44;22.73;;;6.47;;
37633;SDS011;32048;49.902;22.508;2022-11-15T00:28:11;52.13;;;7.23;;
37633;SDS011;32048;49.902;22.508;2022-11-15T00:30:39;33.23;;;6.77;;
37633;SDS011;32048;49.902;22.508;2022-11-15T00:33:05;58.97;;;9.63;;
37633;SDS011;32048;49.902;22.508;2022-11-15T00:35:33;175.60;;;12.27;;
37633;SDS011;32048;49.902;22.508;2022-11-15T00:38:01;125.37;;;11.20;;
37633;SDS011;32048;49.902;22.508;2022-11-15T00:40:29;140.60;;;12.43;;
37633;SDS011;32048;49.902;22.508;2022-11-15T00:42:56;68.10;;;8.53;;
37633;SDS011;32048;49.902;22.508;2022-11-15T00:45:23;35.07;;;7.23;;
37633;SDS011;32048;49.902;22.508;2022-11-15T00:47:51;166.80;;;11.50;;
37633;SDS011;32048;49.902;22.508;2022-11-15T00:50:18;233.57;;;14.60;;
37633;SDS011;32048;49.902;22.508;2022-11-15T00:52:45;56.93;;;7.83;;
37633;SDS011;32048;49.902;22.508;2022-11-15T00:55:13;32.23;;;6.47;;
37633;SDS011;32048;49.902;22.508;2022-11-15T00:57:42;83.10;;;10.87;;
37633;SDS011;32048;49.902;22.508;2022-11-15T01:00:09;83.53;;;9.07;;
37633;SDS011;32048;49.902;22.508;2022-11-15T01:02:37;37.40;;;6.70;;
37633;SDS011;32048;49.902;22.508;2022-11-15T01:05:05;108.00;;;10.60;;
37633;SDS011;32048;49.902;22.508;2022-11-15T01:07:32;186.50;;;14.00;;
37633;SDS011;32048;49.902;22.508;2022-11-15T01:10:00;78.60;;;10.70;;
37633;SDS011;32048;49.902;22.508;2022-11-15T01:12:27;159.17;;;14.33;;
37633;SDS011;32048;49.902;22.508;2022-11-15T01:14:54;46.73;;;6.70;;
37633;SDS011;32048;49.902;22.508;2022-11-15T01:17:21;20.60;;;5.77;;
37633;SDS011;32048;49.902;22.508;2022-11-15T01:19:48;207.07;;;13.93;;
37633;SDS011;32048;49.902;22.508;2022-11-15T01:22:15;257.87;;;16.00;;
37633;SDS011;32048;49.902;22.508;2022-11-15T01:24:42;56.33;;;7.10;;
37633;SDS011;32048;49.902;22.508;2022-11-15T01:27:09;60.33;;;7.00;;
37633;SDS011;32048;49.902;22.508;2022-11-15T01:29:36;78.10;;;7.73;;
37633;SDS011;32048;49.902;22.508;2022-11-15T01:32:03;120.60;;;10.43;;
37633;SDS011;32048;49.902;22.508;2022-11-15T01:34:30;55.07;;;6.73;;
37633;SDS011;32048;49.902;22.508;2022-11-15T01:36:57;143.97;;;10.60;;
37633;SDS011;32048;49.902;22.508;2022-11-15T01:39:24;70.60;;;7.53;;
37633;SDS011;32048;49.902;22.508;2022-11-15T01:41:51;60.93;;;7.13;;
37633;SDS011;32048;49.902;22.508;2022-11-15T01:46:54;295.33;;;15.67;;
37633;SDS011;32048;49.902;22.508;2022-11-15T01:49:22;136.60;;;10.27;;
37633;SDS011;32048;49.902;22.508;2022-11-15T01:51:50;176.13;;;11.27;;
37633;SDS011;32048;49.902;22.508;2022-11-15T01:54:18;70.18;;;8.30;;
37633;SDS011;32048;49.902;22.508;2022-11-15T01:56:48;82.82;;;8.60;;
37633;SDS011;32048;49.902;22.508;2022-11-15T01:59:20;18.33;;;6.00;;
37633;SDS011;32048;49.902;22.508;2022-11-15T02:01:48;25.00;;;5.60;;
37633;SDS011;32048;49.902;22.508;2022-11-15T02:04:16;24.70;;;5.90;;
37633;SDS011;32048;49.902;22.508;2022-11-15T02:06:49;47.47;;;7.13;;
37633;SDS011;32048;49.902;22.508;2022-11-15T02:09:16;27.27;;;5.87;;
37633;SDS011;32048;49.902;22.508;2022-11-15T02:11:43;41.47;;;6.90;;
37633;SDS011;32048;49.902;22.508;2022-11-15T02:14:14;25.07;;;6.00;;
37633;SDS011;32048;49.902;22.508;2022-11-15T02:33:03;56.53;;;6.57;;
37633;SDS011;32048;49.902;22.508;2022-11-15T02:43:04;44.07;;;5.50;;
37633;SDS011;32048;49.902;22.508;2022-11-15T02:46:02;43.30;;;4.93;;
37633;SDS011;32048;49.902;22.508;2022-11-15T02:51:03;51.37;;;6.20;;
37633;SDS011;32048;49.902;22.508;2022-11-15T02:53:31;38.13;;;6.33;;
37633;SDS011;32048;49.902;22.508;2022-11-15T02:55:58;99.47;;;7.73;;
37633;SDS011;32048;49.902;22.508;2022-11-15T03:06:37;5.87;;;3.80;;
37633;SDS011;32048;49.902;22.508;2022-11-15T03:09:08;15.67;;;4.00;;
37633;SDS011;32048;49.902;22.508;2022-11-15T03:11:41;35.30;;;5.80;;
37633;SDS011;32048;49.902;22.508;2022-11-15T03:14:21;38.83;;;5.10;;
37633;SDS011;32048;49.902;22.508;2022-11-15T03:22:14;8.90;;;4.07;;
37633;SDS011;32048;49.902;22.508;2022-11-15T03:24:43;29.83;;;4.70;;
37633;SDS011;32048;49.902;22.508;2022-11-15T03:27:14;27.57;;;4.97;;
37633;SDS011;32048;49.902;22.508;2022-11-15T03:29:49;34.00;;;4.90;;
37633;SDS011;32048;49.902;22.508;2022-11-15T03:32:22;22.93;;;4.63;;
37633;SDS011;32048;49.902;22.508;2022-11-15T03:34:53;13.67;;;4.40;;
37633;SDS011;32048;49.902;22.508;2022-11-15T03:37:29;91.97;;;6.37;;
37633;SDS011;32048;49.902;22.508;2022-11-15T03:40:00;17.10;;;4.37;;
37633;SDS011;32048;49.902;22.508;2022-11-15T03:42:34;11.95;;;4.00;;
37633;SDS011;32048;49.902;22.508;2022-11-15T03:48:02;9.70;;;3.47;;
37633;SDS011;32048;49.902;22.508;2022-11-15T03:50:36;5.77;;;3.50;;
37633;SDS011;32048;49.902;22.508;2022-11-15T03:53:04;9.67;;;3.53;;
37633;SDS011;32048;49.902;22.508;2022-11-15T03:55:31;10.87;;;3.20;;
37633;SDS011;32048;49.902;22.508;2022-11-15T03:58:00;10.80;;;3.67;;
37633;SDS011;32048;49.902;22.508;2022-11-15T04:00:27;9.10;;;3.63;;
37633;SDS011;32048;49.902;22.508;2022-11-15T04:02:55;10.83;;;3.93;;
37633;SDS011;32048;49.902;22.508;2022-11-15T04:05:22;18.43;;;4.10;;
37633;SDS011;32048;49.902;22.508;2022-11-15T04:07:49;33.10;;;4.67;;
37633;SDS011;32048;49.902;22.508;2022-11-15T04:10:16;18.13;;;3.83;;
37633;SDS011;32048;49.902;22.508;2022-11-15T04:12:43;27.70;;;4.87;;
37633;SDS011;32048;49.902;22.508;2022-11-15T04:15:15;61.77;;;5.53;;
37633;SDS011;32048;49.902;22.508;2022-11-15T04:17:45;36.57;;;4.50;;
37633;SDS011;32048;49.902;22.508;2022-11-15T04:20:21;12.57;;;3.67;;
37633;SDS011;32048;49.902;22.508;2022-11-15T04:23:12;11.57;;;3.90;;
37633;SDS011;32048;49.902;22.508;2022-11-15T04:26:04;90.50;;;7.03;;
37633;SDS011;32048;49.902;22.508;2022-11-15T04:28:33;45.43;;;6.37;;
37633;SDS011;32048;49.902;22.508;2022-11-15T04:31:00;14.57;;;3.80;;
37633;SDS011;32048;49.902;22.508;2022-11-15T04:33:27;87.47;;;6.83;;
37633;SDS011;32048;49.902;22.508;2022-11-15T04:35:55;32.10;;;3.87;;
37633;SDS011;32048;49.902;22.508;2022-11-15T04:38:41;7.13;;;3.17;;
37633;SDS011;32048;49.902;22.508;2022-11-15T04:41:07;9.60;;;2.80;;
37633;SDS011;32048;49.902;22.508;2022-11-15T04:43:34;4.20;;;2.63;;
37633;SDS011;32048;49.902;22.508;2022-11-15T04:46:01;9.67;;;2.47;;
37633;SDS011;32048;49.902;22.508;2022-11-15T04:48:29;12.87;;;3.07;;
37633;SDS011;32048;49.902;22.508;2022-11-15T04:50:55;7.10;;;3.07;;
37633;SDS011;32048;49.902;22.508;2022-11-15T04:53:22;7.93;;;4.17;;
37633;SDS011;32048;49.902;22.508;2022-11-15T04:55:49;14.03;;;4.53;;
37633;SDS011;32048;49.902;22.508;2022-11-15T04:58:16;13.27;;;4.13;;
37633;SDS011;32048;49.902;22.508;2022-11-15T05:00:43;6.80;;;2.90;;
37633;SDS011;32048;49.902;22.508;2022-11-15T05:03:10;6.00;;;2.60;;
37633;SDS011;32048;49.902;22.508;2022-11-15T05:05:56;3.57;;;2.57;;
37633;SDS011;32048;49.902;22.508;2022-11-15T05:08:24;13.23;;;2.80;;
37633;SDS011;32048;49.902;22.508;2022-11-15T05:10:51;5.17;;;2.83;;
37633;SDS011;32048;49.902;22.508;2022-11-15T05:13:18;12.33;;;4.00;;
37633;SDS011;32048;49.902;22.508;2022-11-15T05:15:46;6.43;;;3.17;;
37633;SDS011;32048;49.902;22.508;2022-11-15T05:18:13;4.23;;;2.60;;
37633;SDS011;32048;49.902;22.508;2022-11-15T05:20:47;13.43;;;5.60;;
37633;SDS011;32048;49.902;22.508;2022-11-15T05:23:14;10.00;;;4.30;;
37633;SDS011;32048;49.902;22.508;2022-11-15T05:25:41;16.87;;;4.33;;
37633;SDS011;32048;49.902;22.508;2022-11-15T05:28:08;14.23;;;4.30;;
37633;SDS011;32048;49.902;22.508;2022-11-15T05:30:35;9.33;;;4.10;;
37633;SDS011;32048;49.902;22.508;2022-11-15T05:33:02;12.77;;;4.70;;
37633;SDS011;32048;49.902;22.508;2022-11-15T05:38:01;9.83;;;3.73;;
37633;SDS011;32048;49.902;22.508;2022-11-15T05:40:27;20.43;;;3.80;;
37633;SDS011;32048;49.902;22.508;2022-11-15T05:42:57;56.97;;;6.23;;
37633;SDS011;32048;49.902;22.508;2022-11-15T05:45:26;91.70;;;7.67;;
37633;SDS011;32048;49.902;22.508;2022-11-15T05:47:53;37.43;;;4.93;;
37633;SDS011;32048;49.902;22.508;2022-11-15T05:50:23;18.40;;;3.87;;
37633;SDS011;32048;49.902;22.508;2022-11-15T05:52:50;20.40;;;4.53;;
37633;SDS011;32048;49.902;22.508;2022-11-15T05:55:17;63.47;;;5.57;;
37633;SDS011;32048;49.902;22.508;2022-11-15T05:57:45;32.03;;;4.83;;
37633;SDS011;32048;49.902;22.508;2022-11-15T06:00:12;205.40;;;10.43;;
37633;SDS011;32048;49.902;22.508;2022-11-15T06:02:39;92.27;;;5.67;;
37633;SDS011;32048;49.902;22.508;2022-11-15T06:05:06;25.30;;;8.53;;
37633;SDS011;32048;49.902;22.508;2022-11-15T06:07:33;69.00;;;8.20;;
37633;SDS011;32048;49.902;22.508;2022-11-15T06:10:00;72.07;;;10.97;;
37633;SDS011;32048;49.902;22.508;2022-11-15T06:12:27;116.47;;;12.80;;
37633;SDS011;32048;49.902;22.508;2022-11-15T06:14:54;112.97;;;13.43;;
37633;SDS011;32048;49.902;22.508;2022-11-15T06:17:21;83.03;;;6.07;;
37633;SDS011;32048;49.902;22.508;2022-11-15T06:19:48;86.27;;;5.90;;
37633;SDS011;32048;49.902;22.508;2022-11-15T06:22:15;61.10;;;5.40;;
37633;SDS011;32048;49.902;22.508;2022-11-15T06:24:42;54.20;;;6.23;;
37633;SDS011;32048;49.902;22.508;2022-11-15T06:27:10;32.92;;;5.82;;
37633;SDS011;32048;49.902;22.508;2022-11-15T06:29:37;34.33;;;7.63;;
37633;SDS011;32048;49.902;22.508;2022-11-15T06:32:05;39.67;;;5.73;;
37633;SDS011;32048;49.902;22.508;2022-11-15T06:34:32;50.23;;;7.43;;
37633;SDS011;32048;49.902;22.508;2022-11-15T06:36:59;41.90;;;6.60;;
37633;SDS011;32048;49.902;22.508;2022-11-15T06:39:26;17.03;;;5.70;;
37633;SDS011;32048;49.902;22.508;2022-11-15T06:41:53;29.30;;;5.40;;
37633;SDS011;32048;49.902;22.508;2022-11-15T06:44:20;43.47;;;6.13;;
37633;SDS011;32048;49.902;22.508;2022-11-15T06:46:47;35.20;;;6.03;;
37633;SDS011;32048;49.902;22.508;2022-11-15T06:49:14;68.27;;;16.03;;
37633;SDS011;32048;49.902;22.508;2022-11-15T06:51:41;65.13;;;7.40;;
37633;SDS011;32048;49.902;22.508;2022-11-15T06:54:07;77.07;;;19.10;;
37633;SDS011;32048;49.902;22.508;2022-11-15T06:56:34;99.10;;;8.10;;
37633;SDS011;32048;49.902;22.508;2022-11-15T06:59:01;72.37;;;7.27;;
37633;SDS011;32048;49.902;22.508;2022-11-15T07:01:28;120.47;;;10.63;;
37633;SDS011;32048;49.902;22.508;2022-11-15T07:03:55;154.53;;;8.20;;
37633;SDS011;32048;49.902;22.508;2022-11-15T07:06:22;142.77;;;8.37;;
37633;SDS011;32048;49.902;22.508;2022-11-15T07:08:49;112.27;;;7.67;;
37633;SDS011;32048;49.902;22.508;2022-11-15T07:11:16;135.27;;;10.57;;
37633;SDS011;32048;49.902;22.508;2022-11-15T07:13:43;94.90;;;12.13;;
37633;SDS011;32048;49.902;22.508;2022-11-15T07:16:10;91.10;;;9.93;;
37633;SDS011;32048;49.902;22.508;2022-11-15T07:18:38;67.70;;;10.57;;
37633;SDS011;32048;49.902;22.508;2022-11-15T07:21:07;93.25;;;14.00;;
37633;SDS011;32048;49.902;22.508;2022-11-15T07:23:36;30.70;;;6.97;;
37633;SDS011;32048;49.902;22.508;2022-11-15T07:26:05;54.40;;;21.92;;
37633;SDS011;32048;49.902;22.508;2022-11-15T07:28:32;17.90;;;7.97;;
37633;SDS011;32048;49.902;22.508;2022-11-15T07:31:04;10.17;;;3.60;;
37633;SDS011;32048;49.902;22.508;2022-11-15T07:33:33;97.77;;;6.40;;
37633;SDS011;32048;49.902;22.508;2022-11-15T07:36:01;2.95;;;2.35;;
37633;SDS011;32048;49.902;22.508;2022-11-15T07:38:30;4.18;;;3.30;;
37633;SDS011;32048;49.902;22.508;2022-11-15T07:40:58;5.10;;;4.35;;
37633;SDS011;32048;49.902;22.508;2022-11-15T07:43:25;5.68;;;4.72;;
37633;SDS011;32048;49.902;22.508;2022-11-15T07:45:57;3.65;;;2.78;;
37633;SDS011;32048;49.902;22.508;2022-11-15T07:48:25;7.63;;;6.47;;
37633;SDS011;32048;49.902;22.508;2022-11-15T07:51:10;103.43;;;69.88;;
37633;SDS011;32048;49.902;22.508;2022-11-15T07:53:41;11.25;;;6.45;;
37633;SDS011;32048;49.902;22.508;2022-11-15T07:56:10;8.10;;;6.05;;
37633;SDS011;32048;49.902;22.508;2022-11-15T07:58:37;5.28;;;3.20;;
37633;SDS011;32048;49.902;22.508;2022-11-15T08:01:05;5.28;;;3.83;;
37633;SDS011;32048;49.902;22.508;2022-11-15T08:03:32;7.70;;;4.32;;
37633;SDS011;32048;49.902;22.508;2022-11-15T08:06:00;6.28;;;3.85;;
37633;SDS011;32048;49.902;22.508;2022-11-15T08:08:28;5.75;;;3.67;;
37633;SDS011;32048;49.902;22.508;2022-11-15T08:10:57;8.25;;;3.72;;
37633;SDS011;32048;49.902;22.508;2022-11-15T08:13:24;4.07;;;3.05;;
37633;SDS011;32048;49.902;22.508;2022-11-15T08:15:51;4.55;;;2.97;;
37633;SDS011;32048;49.902;22.508;2022-11-15T08:18:23;3.65;;;2.67;;
37633;SDS011;32048;49.902;22.508;2022-11-15T08:20:50;2.95;;;2.58;;
37633;SDS011;32048;49.902;22.508;2022-11-15T08:23:17;3.53;;;2.17;;
37633;SDS011;32048;49.902;22.508;2022-11-15T08:25:44;2.88;;;2.45;;
37633;SDS011;32048;49.902;22.508;2022-11-15T08:28:10;3.80;;;2.40;;
37633;SDS011;32048;49.902;22.508;2022-11-15T08:30:38;3.45;;;2.50;;
37633;SDS011;32048;49.902;22.508;2022-11-15T08:33:12;4.15;;;3.00;;
37633;SDS011;32048;49.902;22.508;2022-11-15T08:35:42;9.32;;;5.10;;
37633;SDS011;32048;49.902;22.508;2022-11-15T08:38:10;22.58;;;19.13;;
37633;SDS011;32048;49.902;22.508;2022-11-15T08:40:37;6.78;;;4.25;;
37633;SDS011;32048;49.902;22.508;2022-11-15T08:43:04;4.35;;;2.90;;
37633;SDS011;32048;49.902;22.508;2022-11-15T08:45:33;5.90;;;4.90;;
37633;SDS011;32048;49.902;22.508;2022-11-15T08:48:02;3.13;;;2.83;;
37633;SDS011;32048;49.902;22.508;2022-11-15T08:50:29;5.05;;;2.63;;
37633;SDS011;32048;49.902;22.508;2022-11-15T08:52:56;3.72;;;2.75;;
37633;SDS011;32048;49.902;22.508;2022-11-15T08:55:24;2.83;;;2.50;;
37633;SDS011;32048;49.902;22.508;2022-11-15T08:57:51;5.40;;;2.95;;
37633;SDS011;32048;49.902;22.508;2022-11-15T09:00:18;2.80;;;2.40;;
37633;SDS011;32048;49.902;22.508;2022-11-15T09:02:46;2.38;;;2.17;;
37633;SDS011;32048;49.902;22.508;2022-11-15T09:05:13;151.82;;;28.85;;
37633;SDS011;32048;49.902;22.508;2022-11-15T09:07:41;8.18;;;4.40;;
37633;SDS011;32048;49.902;22.508;2022-11-15T09:10:09;10.05;;;5.80;;
37633;SDS011;32048;49.902;22.508;2022-11-15T09:12:35;5.72;;;3.78;;
37633;SDS011;32048;49.902;22.508;2022-11-15T09:15:03;4.32;;;3.00;;
37633;SDS011;32048;49.902;22.508;2022-11-15T09:17:31;5.03;;;3.75;;
37633;SDS011;32048;49.902;22.508;2022-11-15T09:19:58;3.67;;;2.80;;
37633;SDS011;32048;49.902;22.508;2022-11-15T09:22:25;3.75;;;3.30;;
37633;SDS011;32048;49.902;22.508;2022-11-15T09:24:52;4.93;;;3.17;;
37633;SDS011;32048;49.902;22.508;2022-11-15T09:27:19;3.88;;;2.67;;
37633;SDS011;32048;49.902;22.508;2022-11-15T09:29:46;4.03;;;3.20;;
37633;SDS011;32048;49.902;22.508;2022-11-15T09:32:13;5.15;;;3.15;;
37633;SDS011;32048;49.902;22.508;2022-11-15T09:34:40;5.15;;;3.65;;
37633;SDS011;32048;49.902;22.508;2022-11-15T09:37:07;6.30;;;4.28;;
37633;SDS011;32048;49.902;22.508;2022-11-15T09:39:34;6.88;;;4.70;;
37633;SDS011;32048;49.902;22.508;2022-11-15T09:45:17;4.35;;;3.28;;
37633;SDS011;32048;49.902;22.508;2022-11-15T09:50:47;5.82;;;4.13;;
37633;SDS011;32048;49.902;22.508;2022-11-15T09:53:24;6.13;;;4.13;;
37633;SDS011;32048;49.902;22.508;2022-11-15T09:56:26;7.78;;;3.80;;
37633;SDS011;32048;49.902;22.508;2022-11-15T10:04:30;7.43;;;5.30;;
37633;SDS011;32048;49.902;22.508;2022-11-15T10:07:02;8.80;;;5.93;;
37633;SDS011;32048;49.902;22.508;2022-11-15T10:09:51;9.45;;;6.18;;
37633;SDS011;32048;49.902;22.508;2022-11-15T10:12:23;13.55;;;7.65;;
37633;SDS011;32048;49.902;22.508;2022-11-15T10:15:03;10.50;;;6.28;;
37633;SDS011;32048;49.902;22.508;2022-11-15T10:20:14;11.77;;;6.10;;
37633;SDS011;32048;49.902;22.508;2022-11-15T10:22:47;9.82;;;6.45;;
37633;SDS011;32048;49.902;22.508;2022-11-15T10:25:24;9.10;;;6.20;;
37633;SDS011;32048;49.902;22.508;2022-11-15T10:30:32;10.45;;;6.55;;
37633;SDS011;32048;49.902;22.508;2022-11-15T10:35:40;9.23;;;6.57;;
37633;SDS011;32048;49.902;22.508;2022-11-15T10:38:09;9.75;;;6.45;;
37633;SDS011;32048;49.902;22.508;2022-11-15T10:40:38;12.70;;;6.63;;
37633;SDS011;32048;49.902;22.508;2022-11-15T10:45:36;12.23;;;7.53;;
37633;SDS011;32048;49.902;22.508;2022-11-15T10:50:41;11.70;;;7.43;;
37633;SDS011;32048;49.902;22.508;2022-11-15T10:56:08;14.63;;;8.25;;
37633;SDS011;32048;49.902;22.508;2022-11-15T10:58:43;11.43;;;6.80;;
37633;SDS011;32048;49.902;22.508;2022-11-15T11:01:20;14.05;;;8.77;;
37633;SDS011;32048;49.902;22.508;2022-11-15T11:04:01;13.02;;;8.13;;
37633;SDS011;32048;49.902;22.508;2022-11-15T11:06:46;13.43;;;8.85;;
37633;SDS011;32048;49.902;22.508;2022-11-15T11:09:28;14.23;;;8.60;;
37633;SDS011;32048;49.902;22.508;2022-11-15T11:12:05;12.88;;;8.05;;
37633;SDS011;32048;49.902;22.508;2022-11-15T11:14:37;13.45;;;8.63;;
37633;SDS011;32048;49.902;22.508;2022-11-15T11:22:34;13.45;;;8.05;;
37633;SDS011;32048;49.902;22.508;2022-11-15T11:36:53;13.25;;;8.05;;
37633;SDS011;32048;49.902;22.508;2022-11-15T11:39:47;12.80;;;9.10;;
37633;SDS011;32048;49.902;22.508;2022-11-15T11:42:40;14.82;;;8.52;;
37633;SDS011;32048;49.902;22.508;2022-11-15T11:45:15;17.77;;;11.68;;
37633;SDS011;32048;49.902;22.508;2022-11-15T11:47:51;14.50;;;10.18;;
37633;SDS011;32048;49.902;22.508;2022-11-15T11:50:29;13.13;;;8.50;;
37633;SDS011;32048;49.902;22.508;2022-11-15T11:55:47;13.25;;;9.07;;
37633;SDS011;32048;49.902;22.508;2022-11-15T11:58:36;14.85;;;9.00;;
37633;SDS011;32048;49.902;22.508;2022-11-15T12:01:25;14.48;;;8.40;;
37633;SDS011;32048;49.902;22.508;2022-11-15T12:03:59;13.75;;;9.15;;
37633;SDS011;32048;49.902;22.508;2022-11-15T12:09:14;14.40;;;8.93;;
37633;SDS011;32048;49.902;22.508;2022-11-15T12:16:59;15.57;;;10.00;;
37633;SDS011;32048;49.902;22.508;2022-11-15T12:19:28;13.13;;;8.40;;
37633;SDS011;32048;49.902;22.508;2022-11-15T12:25:02;14.80;;;9.93;;
37633;SDS011;32048;49.902;22.508;2022-11-15T12:27:44;18.17;;;10.70;;
37633;SDS011;32048;49.902;22.508;2022-11-15T12:30:24;17.70;;;11.73;;
37633;SDS011;32048;49.902;22.508;2022-11-15T12:36:35;19.05;;;10.70;;
37633;SDS011;32048;49.902;22.508;2022-11-15T12:39:08;24.27;;;12.60;;
37633;SDS011;32048;49.902;22.508;2022-11-15T12:41:43;19.30;;;12.02;;
37633;SDS011;32048;49.902;22.508;2022-11-15T13:22:41;44.67;;;24.27;;
37633;SDS011;32048;49.902;22.508;2022-11-15T13:30:36;28.45;;;15.90;;
37633;SDS011;32048;49.902;22.508;2022-11-15T13:33:08;28.50;;;17.45;;
37633;SDS011;32048;49.902;22.508;2022-11-15T13:35:38;30.58;;;16.67;;
37633;SDS011;32048;49.902;22.508;2022-11-15T13:38:18;29.88;;;17.08;;
37633;SDS011;32048;49.902;22.508;2022-11-15T13:40:46;30.77;;;18.38;;
37633;SDS011;32048;49.902;22.508;2022-11-15T13:46:10;28.85;;;18.05;;
37633;SDS011;32048;49.902;22.508;2022-11-15T13:48:45;30.42;;;17.15;;
37633;SDS011;32048;49.902;22.508;2022-11-15T13:51:18;35.38;;;19.02;;
37633;SDS011;32048;49.902;22.508;2022-11-15T13:53:48;42.05;;;22.10;;
37633;SDS011;32048;49.902;22.508;2022-11-15T13:56:26;41.50;;;21.92;;
37633;SDS011;32048;49.902;22.508;2022-11-15T13:58:55;42.25;;;22.65;;
37633;SDS011;32048;49.902;22.508;2022-11-15T14:01:23;35.22;;;20.40;;
37633;SDS011;32048;49.902;22.508;2022-11-15T14:03:58;40.80;;;21.55;;
37633;SDS011;32048;49.902;22.508;2022-11-15T14:06:28;36.92;;;18.67;;
37633;SDS011;32048;49.902;22.508;2022-11-15T14:11:49;32.35;;;19.00;;
37633;SDS011;32048;49.902;22.508;2022-11-15T14:14:17;41.78;;;22.88;;
37633;SDS011;32048;49.902;22.508;2022-11-15T14:16:51;49.60;;;27.67;;
37633;SDS011;32048;49.902;22.508;2022-11-15T14:22:08;43.13;;;22.13;;
37633;SDS011;32048;49.902;22.508;2022-11-15T14:24:34;58.17;;;27.38;;
37633;SDS011;32048;49.902;22.508;2022-11-15T14:27:24;61.53;;;29.98;;
37633;SDS011;32048;49.902;22.508;2022-11-15T14:29:53;95.75;;;39.88;;
37633;SDS011;32048;49.902;22.508;2022-11-15T14:34:53;35.72;;;20.60;;
37633;SDS011;32048;49.902;22.508;2022-11-15T14:37:24;36.65;;;20.35;;
37633;SDS011;32048;49.902;22.508;2022-11-15T14:39:53;48.60;;;22.27;;
37633;SDS011;32048;49.902;22.508;2022-11-15T14:42:21;39.08;;;20.27;;
37633;SDS011;32048;49.902;22.508;2022-11-15T14:44:49;95.35;;;46.40;;
37633;SDS011;32048;49.902;22.508;2022-11-15T14:47:16;100.60;;;47.85;;
37633;SDS011;32048;49.902;22.508;2022-11-15T14:49:44;94.57;;;45.75;;
37633;SDS011;32048;49.902;22.508;2022-11-15T14:54:59;100.78;;;51.08;;
37633;SDS011;32048;49.902;22.508;2022-11-15T14:57:30;128.13;;;64.35;;
37633;SDS011;32048;49.902;22.508;2022-11-15T14:59:57;146.88;;;73.53;;
37633;SDS011;32048;49.902;22.508;2022-11-15T15:02:24;124.78;;;62.97;;
37633;SDS011;32048;49.902;22.508;2022-11-15T15:04:53;121.20;;;59.47;;
37633;SDS011;32048;49.902;22.508;2022-11-15T15:07:20;115.38;;;55.63;;
37633;SDS011;32048;49.902;22.508;2022-11-15T15:09:48;93.13;;;48.80;;
37633;SDS011;32048;49.902;22.508;2022-11-15T15:12:16;105.85;;;56.00;;
37633;SDS011;32048;49.902;22.508;2022-11-15T15:14:45;109.73;;;56.07;;
37633;SDS011;32048;49.902;22.508;2022-11-15T15:17:15;155.50;;;72.72;;
37633;SDS011;32048;49.902;22.508;2022-11-15T15:19:43;179.15;;;98.88;;
37633;SDS011;32048;49.902;22.508;2022-11-15T15:22:13;134.57;;;70.53;;
37633;SDS011;32048;49.902;22.508;2022-11-15T15:24:43;191.10;;;98.23;;
37633;SDS011;32048;49.902;22.508;2022-11-15T15:27:11;256.63;;;121.25;;
37633;SDS011;32048;49.902;22.508;2022-11-15T15:29:39;242.97;;;127.67;;
37633;SDS011;32048;49.902;22.508;2022-11-15T15:32:07;204.40;;;103.40;;
37633;SDS011;32048;49.902;22.508;2022-11-15T15:34:35;194.27;;;94.45;;
37633;SDS011;32048;49.902;22.508;2022-11-15T15:39:35;206.00;;;99.87;;
37633;SDS011;32048;49.902;22.508;2022-11-15T15:42:02;239.70;;;111.13;;
37633;SDS011;32048;49.902;22.508;2022-11-15T15:44:30;164.20;;;73.68;;
37633;SDS011;32048;49.902;22.508;2022-11-15T15:46:57;304.63;;;116.63;;
37633;SDS011;32048;49.902;22.508;2022-11-15T15:49:24;401.33;;;154.50;;
37633;SDS011;32048;49.902;22.508;2022-11-15T15:51:51;300.83;;;126.00;;
37633;SDS011;32048;49.902;22.508;2022-11-15T15:54:18;248.17;;;113.63;;
37633;SDS011;32048;49.902;22.508;2022-11-15T15:56:45;272.33;;;128.63;;
37633;SDS011;32048;49.902;22.508;2022-11-15T15:59:15;277.00;;;135.63;;
37633;SDS011;32048;49.902;22.508;2022-11-15T16:01:42;262.13;;;131.03;;
37633;SDS011;32048;49.902;22.508;2022-11-15T16:04:09;259.33;;;127.77;;
37633;SDS011;32048;49.902;22.508;2022-11-15T16:09:16;206.13;;;105.30;;
37633;SDS011;32048;49.902;22.508;2022-11-15T16:11:46;180.20;;;91.43;;
37633;SDS011;32048;49.902;22.508;2022-11-15T16:14:13;201.23;;;98.90;;
37633;SDS011;32048;49.902;22.508;2022-11-15T16:16:40;181.00;;;88.83;;
37633;SDS011;32048;49.902;22.508;2022-11-15T16:19:07;182.40;;;91.47;;
37633;SDS011;32048;49.902;22.508;2022-11-15T16:21:36;336.52;;;129.95;;
37633;SDS011;32048;49.902;22.508;2022-11-15T16:24:04;356.57;;;143.13;;
37633;SDS011;32048;49.902;22.508;2022-11-15T16:26:30;533.27;;;245.47;;
37633;SDS011;32048;49.902;22.508;2022-11-15T16:29:01;333.50;;;153.87;;
37633;SDS011;32048;49.902;22.508;2022-11-15T16:31:28;328.03;;;157.57;;
37633;SDS011;32048;49.902;22.508;2022-11-15T16:33:55;359.10;;;161.67;;
37633;SDS011;32048;49.902;22.508;2022-11-15T16:36:23;331.33;;;149.77;;
37633;SDS011;32048;49.902;22.508;2022-11-15T16:38:57;285.80;;;130.30;;
37633;SDS011;32048;49.902;22.508;2022-11-15T16:41:25;246.83;;;126.70;;
37633;SDS011;32048;49.902;22.508;2022-11-15T16:43:52;288.53;;;142.90;;
37633;SDS011;32048;49.902;22.508;2022-11-15T16:46:20;285.57;;;143.60;;
37633;SDS011;32048;49.902;22.508;2022-11-15T16:48:51;288.33;;;143.03;;
37633;SDS011;32048;49.902;22.508;2022-11-15T16:51:19;287.37;;;146.67;;
37633;SDS011;32048;49.902;22.508;2022-11-15T16:53:47;304.43;;;149.33;;
37633;SDS011;32048;49.902;22.508;2022-11-15T16:56:18;306.43;;;154.30;;
37633;SDS011;32048;49.902;22.508;2022-11-15T16:58:49;307.70;;;148.40;;
37633;SDS011;32048;49.902;22.508;2022-11-15T17:01:18;277.60;;;137.90;;
37633;SDS011;32048;49.902;22.508;2022-11-15T17:03:48;265.73;;;132.80;;
37633;SDS011;32048;49.902;22.508;2022-11-15T17:06:15;286.07;;;133.97;;
37633;SDS011;32048;49.902;22.508;2022-11-15T17:11:15;286.70;;;127.10;;
37633;SDS011;32048;49.902;22.508;2022-11-15T17:13:45;293.17;;;134.43;;
37633;SDS011;32048;49.902;22.508;2022-11-15T17:16:13;312.13;;;143.13;;
37633;SDS011;32048;49.902;22.508;2022-11-15T17:18:41;303.73;;;133.90;;
37633;SDS011;32048;49.902;22.508;2022-11-15T17:21:13;335.93;;;147.00;;
37633;SDS011;32048;49.902;22.508;2022-11-15T17:23:41;352.60;;;158.70;;
37633;SDS011;32048;49.902;22.508;2022-11-15T17:26:12;336.53;;;158.10;;